Montague, CA

1:56 PM PDT on September 22, 2014 (GMT -0700)
Siskiyou County | Change Station
CLOSE
Current Station
Airport
Location: Montague,
Elevation: 2648 ft
Nearby Weather Stations
Active Advisory: Fire Weather Warning

Elev 2648 ft 41.78 °N, 122.47 °W | Updated 1 hour ago

Clear
Clear
81 °F
Feels Like 81 °F
N
8
Wind Variable Wind from South

Today
High -- | Low -- °F
--% Chance of Precip.
Yesterday
High -- | Low -- °F
Precip. -- in
6:54 AM 7:04 PM
Waning Crescent, 2% visible
Pressure 29.98 in
Visibility 10.0 miles
Clouds Clear
Dew Point 47 °F
Humidity 30%
Rainfall 0.00 in
Snow Depth 0 in , 0 in , 0 in
UV 7 out of 12
Pollen 4.00 out of 12
Air Quality Not available.
Flu Activity Not available.
METAR KSIY 221953Z AUTO 18007KT 10SM CLR 27/08 A3001 RMK AO2 SLP150 T02720083

More Conditions Fewer Conditions

Pressure 29.98 in
Visibility 10.0 miles
Clouds Clear
Dew Point 47 °F
Humidity 30%
Rainfall 0.00 in
Snow Depth 0 in , 0 in , 0 in
UV 7 out of 12
Pollen 4.00 out of 12
Air Quality Not available.
Flu Activity Not available.
METAR KSIY 221953Z AUTO 18007KT 10SM CLR 27/08 A3001 RMK AO2 SLP150 T02720083

More Conditions Fewer Conditions

10-Day Weather Forecast

Almanac

Astronomy

Sep. 22, 2014 Rise Set
Actual Time 6:54 AM PDT 7:04 PM PDT
Civil Twilight 6:27 AM PDT 7:32 PM PDT
Nautical Twilight 5:54 AM PDT 8:04 PM PDT
Astronomical Twilight 5:21 AM PDT 8:37 PM PDT
Moon 5:27 AM PDT 6:15 PM PDT
Length of Visible Light 13h 04m
Length of Day
12h 09m
Tomorrow will be 2m 45s shorter.
Waning Crescent, 2% of the Moon is Illuminated
Today
Waning Crescent
Sep 24
New
Oct 1
First Quarter
Oct 8
Full
Oct 15
Last Quarter

Today's Extremes

State Highs State Lows

Community

WunderPhotos

Upload Photos

1,755,522 photos uploaded!

WunderBlogs® & News

Nearby

Snow Depth

Station Depth Elevation
Adin Mountain 0 in 6200 ft
Rubicon #2 0 in 7500 ft
Leavitt Meadows 0 in 7200 ft
Summit Meadow 0 in 9122 ft
CSS Lab 3 in 6900 ft

Earthquake Activity

City Distance Mag. Time & Date
No recent earthquake activity has been reported nearby.
Minimum magnitude displayed is 2.5.

Coastal Water Temperatures

Place Temperature
No Stations Reporting

Nearby Weather Stations